Time;durP1;ratioP1;P1;durP2;ratioP2;P2;SDS_P1;SDS_P2;PMS_P1;PMS_P2;Temp;Humidity;BMP_temperature;BMP_pressure;BME280_temperature;BME280_humidity;BME280_pressure;Samples;Min_cycle;Max_cycle;Signal;HPM_P1;HPM_P2
2021/05/16 00:00:18;;;;;;;10.75;4.70;;;10.50;99.90;;;;;;5041592;28;20652;-71
2021/05/16 00:02:44;;;;;;;12.50;4.55;;;10.50;99.90;;;;;;5036263;28;20120;-70
2021/05/16 00:05:12;;;;;;;10.15;4.63;;;10.60;99.90;;;;;;5036150;28;20120;-71
2021/05/16 00:07:37;;;;;;;12.43;4.38;;;10.60;99.90;;;;;;5038035;28;20112;-71
2021/05/16 00:10:05;;;;;;;12.95;4.40;;;10.60;99.90;;;;;;5034536;28;20121;-71
2021/05/16 00:12:31;;;;;;;13.40;4.60;;;10.60;99.90;;;;;;5039313;28;20043;-71
2021/05/16 00:14:57;;;;;;;11.70;4.78;;;10.50;99.90;;;;;;5036665;28;20037;-71
2021/05/16 00:17:23;;;;;;;14.07;5.45;;;10.60;99.90;;;;;;5037045;28;20045;-71
2021/05/16 00:19:48;;;;;;;17.63;5.78;;;10.60;99.90;;;;;;5037405;28;20041;-71
2021/05/16 00:22:15;;;;;;;10.50;4.85;;;10.50;99.90;;;;;;5034831;28;20325;-71
2021/05/16 00:24:41;;;;;;;16.60;5.55;;;10.60;99.90;;;;;;5038653;28;20040;-71
2021/05/16 00:27:06;;;;;;;15.68;4.88;;;10.60;99.90;;;;;;5035843;28;20042;-71
2021/05/16 00:29:32;;;;;;;17.90;5.95;;;10.60;99.90;;;;;;5038775;28;20112;-71
2021/05/16 00:31:57;;;;;;;23.67;6.32;;;10.60;99.90;;;;;;5036049;28;20228;-71
2021/05/16 00:34:23;;;;;;;13.52;6.28;;;10.70;99.90;;;;;;5038462;28;20040;-71
2021/05/16 00:36:49;;;;;;;19.95;6.38;;;10.70;99.90;;;;;;5035668;28;20025;-71
2021/05/16 00:39:14;;;;;;;15.15;6.13;;;10.70;99.90;;;;;;5038280;28;20190;-71
2021/05/16 00:41:40;;;;;;;18.33;7.10;;;10.70;99.90;;;;;;5038603;28;20104;-71
2021/05/16 00:44:06;;;;;;;16.45;6.72;;;10.70;99.90;;;;;;5035820;28;20469;-71
2021/05/16 00:46:32;;;;;;;14.43;5.90;;;10.70;99.90;;;;;;5035616;28;20116;-71
2021/05/16 00:48:57;;;;;;;15.93;5.93;;;10.80;99.90;;;;;;5033617;28;20029;-71
2021/05/16 00:51:23;;;;;;;16.63;6.18;;;10.80;99.90;;;;;;5038197;28;20030;-71
2021/05/16 00:53:48;;;;;;;16.40;6.70;;;10.80;99.90;;;;;;5036813;28;20449;-71
2021/05/16 00:56:15;;;;;;;20.38;6.07;;;10.80;99.90;;;;;;5035137;28;20607;-71
2021/05/16 00:58:40;;;;;;;16.08;6.07;;;10.80;99.90;;;;;;5036021;28;20044;-71
2021/05/16 01:01:08;;;;;;;18.23;5.13;;;10.80;99.90;;;;;;5038214;28;20033;-71
2021/05/16 01:03:34;;;;;;;17.15;5.72;;;10.90;99.90;;;;;;5035306;28;20041;-71
2021/05/16 01:06:00;;;;;;;12.85;5.43;;;10.90;99.90;;;;;;5038518;28;20410;-72
2021/05/16 01:08:25;;;;;;;15.98;5.50;;;10.90;99.90;;;;;;5036856;28;20437;-71
2021/05/16 01:10:51;;;;;;;12.27;5.22;;;11.00;99.90;;;;;;5038598;28;20029;-71
2021/05/16 01:13:17;;;;;;;18.27;4.97;;;11.00;99.90;;;;;;5036874;28;20044;-71
2021/05/16 01:15:45;;;;;;;12.98;5.30;;;10.90;99.90;;;;;;5036571;28;20403;-71
2021/05/16 01:18:11;;;;;;;13.30;5.40;;;11.00;99.90;;;;;;5036778;28;20036;-71
2021/05/16 01:20:42;;;;;;;16.52;5.80;;;11.00;99.90;;;;;;5038963;28;20405;-71
2021/05/16 01:23:15;;;;;;;18.23;5.53;;;11.00;99.90;;;;;;5034739;28;20026;-71
2021/05/16 01:25:44;;;;;;;17.58;4.75;;;11.00;99.90;;;;;;5036001;28;20037;-71
2021/05/16 01:28:11;;;;;;;7.00;2.55;;;11.10;99.90;;;;;;5035466;28;20120;-70
2021/05/16 01:30:37;;;;;;;8.02;3.53;;;11.10;99.90;;;;;;5036307;28;20033;-70
2021/05/16 01:33:04;;;;;;;8.43;2.60;;;10.90;99.90;;;;;;5035253;28;20441;-71
2021/05/16 01:35:31;;;;;;;13.05;3.28;;;10.90;99.90;;;;;;5041367;28;20371;-70
2021/05/16 01:37:57;;;;;;;9.60;3.53;;;10.80;99.90;;;;;;5038105;28;20456;-71
2021/05/16 01:40:23;;;;;;;15.60;3.75;;;10.80;99.90;;;;;;5038855;28;20120;-71
2021/05/16 01:42:52;;;;;;;21.13;3.67;;;10.70;99.90;;;;;;5040009;28;20030;-71
2021/05/16 01:45:25;;;;;;;13.40;3.38;;;10.70;99.90;;;;;;5040304;28;20053;-71
2021/05/16 01:47:52;;;;;;;14.00;4.43;;;10.70;99.90;;;;;;5039600;28;20036;-71
2021/05/16 01:50:20;;;;;;;11.90;3.50;;;10.70;99.90;;;;;;5039166;28;20052;-71
2021/05/16 01:52:47;;;;;;;16.10;4.18;;;10.60;99.90;;;;;;5041093;28;20053;-70
2021/05/16 01:55:15;;;;;;;19.30;4.30;;;10.60;99.90;;;;;;5040099;28;20422;-70
2021/05/16 01:57:43;;;;;;;15.27;4.38;;;10.60;99.90;;;;;;5040007;28;20041;-71
2021/05/16 02:00:11;;;;;;;21.13;4.50;;;10.60;99.90;;;;;;5040542;28;20108;-71
2021/05/16 02:02:38;;;;;;;18.25;5.78;;;10.70;99.90;;;;;;5037996;28;20041;-70
2021/05/16 02:05:04;;;;;;;32.78;7.30;;;10.70;99.90;;;;;;5041370;28;20028;-70
2021/05/16 02:07:32;;;;;;;22.85;6.38;;;10.70;99.90;;;;;;5042478;28;20025;-70
2021/05/16 02:09:58;;;;;;;32.15;8.98;;;10.70;99.90;;;;;;5037941;28;20036;-70
2021/05/16 02:12:23;;;;;;;31.48;8.15;;;10.70;99.90;;;;;;5038512;28;20026;-70
2021/05/16 02:14:49;;;;;;;34.20;8.30;;;10.80;99.90;;;;;;5040208;28;20048;-70
2021/05/16 02:17:15;;;;;;;34.13;8.43;;;10.80;99.90;;;;;;5039651;28;20132;-72
2021/05/16 02:19:42;;;;;;;37.35;9.60;;;10.80;99.90;;;;;;5038424;28;20041;-70
2021/05/16 02:22:07;;;;;;;36.97;9.07;;;10.80;99.90;;;;;;5040562;28;20033;-70
2021/05/16 02:24:33;;;;;;;33.85;8.50;;;10.70;99.90;;;;;;5038892;28;20049;-70
2021/05/16 02:27:00;;;;;;;38.95;8.90;;;10.70;99.90;;;;;;5041673;28;20064;-70
2021/05/16 02:29:30;;;;;;;42.75;8.88;;;10.70;99.90;;;;;;5041132;28;20033;-70
2021/05/16 02:31:56;;;;;;;43.00;8.60;;;10.70;99.90;;;;;;5038402;28;20034;-70
2021/05/16 02:34:22;;;;;;;31.95;7.78;;;10.70;99.90;;;;;;5040958;28;21006;-71
2021/05/16 02:36:48;;;;;;;41.38;8.50;;;10.70;99.90;;;;;;5038480;28;20211;-70
2021/05/16 02:39:13;;;;;;;32.75;7.15;;;10.60;99.90;;;;;;5036868;28;20053;-70
2021/05/16 02:41:39;;;;;;;30.20;8.32;;;10.70;99.90;;;;;;5039346;28;20502;-70
2021/05/16 02:44:05;;;;;;;24.42;7.40;;;10.60;99.90;;;;;;5038818;28;20418;-70
2021/05/16 02:46:31;;;;;;;28.90;7.80;;;10.60;99.90;;;;;;5038282;28;20116;-71
2021/05/16 02:48:57;;;;;;;32.88;7.72;;;10.60;99.90;;;;;;5040655;28;20033;-70
2021/05/16 02:51:22;;;;;;;31.50;7.68;;;10.60;99.90;;;;;;5037279;28;20076;-71
2021/05/16 02:53:48;;;;;;;32.55;7.30;;;10.70;99.90;;;;;;5040797;28;20029;-71
2021/05/16 02:56:15;;;;;;;26.10;7.53;;;10.60;99.90;;;;;;5037726;28;20116;-70
2021/05/16 02:58:42;;;;;;;39.47;7.88;;;10.60;99.90;;;;;;5037002;28;20044;-71
2021/05/16 03:01:08;;;;;;;30.17;8.00;;;10.60;99.90;;;;;;5039833;28;20082;-71
2021/05/16 03:03:33;;;;;;;33.22;7.60;;;10.60;99.90;;;;;;5038270;28;20521;-70
2021/05/16 03:06:00;;;;;;;36.00;7.50;;;10.60;99.90;;;;;;5040586;28;20041;-70
2021/05/16 03:08:25;;;;;;;37.05;8.43;;;10.60;99.90;;;;;;5037151;28;20044;-71
2021/05/16 03:10:51;;;;;;;33.97;8.85;;;10.60;99.90;;;;;;5045629;28;20033;-71
2021/05/16 03:13:17;;;;;;;25.15;6.47;;;10.60;99.90;;;;;;5046352;28;20037;-70
2021/05/16 03:15:42;;;;;;;29.55;8.13;;;10.60;99.90;;;;;;5045987;28;20033;-71
2021/05/16 03:18:08;;;;;;;20.60;7.38;;;10.60;99.90;;;;;;5041778;28;20041;-70
2021/05/16 03:20:34;;;;;;;27.05;7.85;;;10.60;99.90;;;;;;5038833;28;20057;-71
2021/05/16 03:22:59;;;;;;;24.33;6.32;;;10.60;99.90;;;;;;5037429;28;20059;-70
2021/05/16 03:25:25;;;;;;;28.85;6.68;;;10.60;99.90;;;;;;5040313;28;20068;-70
2021/05/16 03:27:50;;;;;;;23.38;5.75;;;10.60;99.90;;;;;;5043463;28;20032;-70
2021/05/16 03:30:16;;;;;;;22.60;5.70;;;10.60;99.90;;;;;;5037265;28;20041;-70
2021/05/16 03:32:42;;;;;;;19.55;6.30;;;10.60;99.90;;;;;;5038580;28;20034;-70
2021/05/16 03:35:10;;;;;;;18.92;6.18;;;10.60;99.90;;;;;;5038459;28;20112;-70
2021/05/16 03:37:36;;;;;;;32.50;6.60;;;10.60;99.90;;;;;;5040624;28;20064;-71
2021/05/16 03:40:03;;;;;;;20.88;5.88;;;10.60;99.90;;;;;;5038718;28;20025;-70
2021/05/16 03:42:28;;;;;;;20.83;6.10;;;10.60;99.90;;;;;;5036983;28;20029;-70
2021/05/16 03:44:55;;;;;;;27.83;6.68;;;10.60;99.90;;;;;;5036192;28;20487;-70
2021/05/16 03:47:21;;;;;;;26.75;6.13;;;10.50;99.90;;;;;;5040466;28;20029;-70
2021/05/16 03:49:47;;;;;;;23.75;6.03;;;10.50;99.90;;;;;;5038275;28;20513;-70
2021/05/16 03:52:13;;;;;;;31.55;8.18;;;10.50;99.90;;;;;;5037177;28;20029;-70
2021/05/16 03:54:40;;;;;;;25.73;6.68;;;10.40;99.90;;;;;;5037732;28;20120;-70
2021/05/16 03:57:06;;;;;;;23.45;6.07;;;10.40;99.90;;;;;;5036738;28;20029;-70
2021/05/16 03:59:32;;;;;;;30.80;6.65;;;10.40;99.90;;;;;;5035674;28;20036;-71
2021/05/16 04:01:58;;;;;;;28.48;7.50;;;10.30;99.90;;;;;;5036595;28;20033;-70
2021/05/16 04:04:23;;;;;;;24.67;7.53;;;10.30;99.90;;;;;;5039832;28;20131;-70
2021/05/16 04:06:49;;;;;;;22.55;6.43;;;10.30;99.90;;;;;;5035623;28;20049;-70
2021/05/16 04:09:14;;;;;;;26.65;6.30;;;10.30;99.90;;;;;;5038644;28;20029;-70
2021/05/16 04:11:40;;;;;;;27.15;6.75;;;10.40;99.90;;;;;;5036615;28;20029;-70
2021/05/16 04:14:06;;;;;;;19.50;6.10;;;10.40;99.90;;;;;;5037666;28;20033;-70
2021/05/16 04:16:31;;;;;;;24.98;5.38;;;10.40;99.90;;;;;;5038633;28;20110;-69
2021/05/16 04:18:57;;;;;;;20.20;6.40;;;10.50;99.90;;;;;;5034976;28;20339;-68
2021/05/16 04:21:23;;;;;;;23.48;6.40;;;10.40;99.90;;;;;;5034618;28;20044;-67
2021/05/16 04:23:48;;;;;;;19.08;4.63;;;10.40;99.90;;;;;;5034505;28;20029;-69
2021/05/16 04:26:14;;;;;;;23.42;5.22;;;10.40;99.90;;;;;;5035434;28;20037;-69
2021/05/16 04:28:39;;;;;;;32.25;6.22;;;10.40;99.90;;;;;;5035617;28;20055;-69
2021/05/16 04:31:05;;;;;;;23.13;6.53;;;10.50;99.90;;;;;;5036044;28;20061;-68
2021/05/16 04:33:30;;;;;;;21.75;5.60;;;10.50;99.90;;;;;;5038088;28;20082;-69
2021/05/16 04:35:58;;;;;;;28.23;6.63;;;10.60;99.90;;;;;;5034050;28;20072;-69
2021/05/16 04:38:24;;;;;;;25.88;5.90;;;10.60;99.90;;;;;;5042540;28;20061;-69
2021/05/16 04:40:50;;;;;;;21.25;6.00;;;10.60;99.90;;;;;;5037951;28;20079;-69
2021/05/16 04:43:15;;;;;;;24.08;7.45;;;10.60;99.90;;;;;;5038991;28;20069;-67
2021/05/16 04:45:41;;;;;;;16.35;5.40;;;10.70;99.90;;;;;;5037931;28;20494;-70
2021/05/16 04:48:07;;;;;;;25.00;6.47;;;10.80;99.90;;;;;;5039174;28;20037;-70
2021/05/16 04:50:33;;;;;;;26.13;4.93;;;10.80;99.90;;;;;;5037036;28;20121;-70
2021/05/16 04:52:59;;;;;;;18.85;5.55;;;10.80;99.90;;;;;;5029270;28;20040;-70
2021/05/16 04:55:25;;;;;;;20.00;4.97;;;10.70;99.90;;;;;;5033900;28;20127;-70
2021/05/16 04:57:50;;;;;;;19.83;5.18;;;10.70;99.90;;;;;;5038604;28;20032;-70
2021/05/16 05:00:18;;;;;;;15.45;4.30;;;10.70;99.90;;;;;;5039750;28;20029;-70
2021/05/16 05:02:46;;;;;;;19.90;4.32;;;10.60;99.90;;;;;;5042274;28;20037;-70
2021/05/16 05:05:13;;;;;;;16.33;3.83;;;10.50;99.90;;;;;;5043476;28;20025;-70
2021/05/16 05:07:38;;;;;;;18.45;3.75;;;10.50;99.90;;;;;;5038076;28;20041;-70
2021/05/16 05:10:04;;;;;;;19.23;3.78;;;10.50;99.90;;;;;;5032248;28;20460;-70
2021/05/16 05:12:30;;;;;;;18.38;4.10;;;10.50;99.90;;;;;;5028156;28;20109;-70
2021/05/16 05:14:56;;;;;;;16.80;4.93;;;10.50;99.90;;;;;;5037999;28;20128;-70
2021/05/16 05:17:21;;;;;;;17.85;3.53;;;10.50;99.90;;;;;;5030424;28;20491;-70
2021/05/16 05:19:47;;;;;;;21.10;5.10;;;10.60;99.90;;;;;;5042368;28;20045;-70
2021/05/16 05:22:13;;;;;;;29.35;4.53;;;10.50;99.90;;;;;;5038819;28;20112;-69
2021/05/16 05:24:38;;;;;;;22.80;4.72;;;10.60;99.90;;;;;;5036567;28;20136;-70
2021/05/16 05:27:04;;;;;;;32.22;5.15;;;10.60;99.90;;;;;;5037560;28;20539;-70
2021/05/16 05:29:30;;;;;;;34.78;7.40;;;10.70;99.90;;;;;;5042676;28;20402;-70
2021/05/16 05:31:55;;;;;;;19.80;4.97;;;10.70;99.90;;;;;;5037336;28;20029;-70
2021/05/16 05:34:24;;;;;;;27.08;5.35;;;10.70;99.90;;;;;;5035605;28;20064;-70
2021/05/16 05:36:50;;;;;;;37.28;6.88;;;10.70;99.90;;;;;;5035848;28;20029;-69
2021/05/16 05:39:16;;;;;;;24.92;6.55;;;10.80;99.90;;;;;;5033281;28;20091;-69
2021/05/16 05:41:44;;;;;;;29.40;6.30;;;10.90;99.90;;;;;;5037405;28;20025;-70
2021/05/16 05:44:10;;;;;;;33.63;6.75;;;11.10;99.90;;;;;;5037321;28;20021;-70
2021/05/16 05:46:35;;;;;;;24.98;5.70;;;11.30;99.90;;;;;;5034990;28;20490;-69
2021/05/16 05:49:01;;;;;;;29.45;5.72;;;11.40;99.90;;;;;;5036262;28;20044;-70
2021/05/16 05:51:27;;;;;;;34.08;5.68;;;11.60;99.90;;;;;;5037256;28;20124;-70
2021/05/16 05:53:52;;;;;;;27.60;4.50;;;11.70;99.90;;;;;;5035095;28;20041;-70
2021/05/16 05:56:18;;;;;;;21.10;5.53;;;11.70;99.90;;;;;;5038903;28;20041;-70
2021/05/16 05:58:43;;;;;;;27.30;5.55;;;12.00;99.90;;;;;;5032220;28;20036;-70
2021/05/16 06:01:09;;;;;;;19.70;4.95;;;12.50;99.90;;;;;;5033414;28;20043;-69
2021/05/16 06:03:34;;;;;;;23.77;5.47;;;12.90;99.90;;;;;;5031246;28;20050;-71
2021/05/16 06:06:00;;;;;;;24.70;4.63;;;13.30;99.90;;;;;;5035243;28;20043;-70
2021/05/16 06:08:26;;;;;;;22.02;4.00;;;14.00;99.90;;;;;;5035144;28;20418;-70
2021/05/16 06:10:51;;;;;;;23.10;3.95;;;14.80;99.90;;;;;;5036958;28;20066;-71
2021/05/16 06:13:18;;;;;;;20.15;3.55;;;15.80;99.90;;;;;;5034875;28;20489;-70
2021/05/16 06:15:43;;;;;;;20.40;4.07;;;16.00;99.90;;;;;;5032287;28;20095;-70
2021/05/16 06:18:09;;;;;;;20.60;4.15;;;15.80;99.90;;;;;;5035099;28;20036;-70
2021/05/16 06:20:34;;;;;;;17.05;3.33;;;15.50;99.90;;;;;;5034293;28;20033;-70
2021/05/16 06:23:02;;;;;;;16.00;3.45;;;15.50;99.90;;;;;;5039157;28;20041;-70
2021/05/16 06:25:28;;;;;;;16.25;3.25;;;15.80;99.90;;;;;;5033988;28;20501;-69
2021/05/16 06:27:56;;;;;;;18.23;3.08;;;15.40;99.90;;;;;;5033996;28;20041;-70
2021/05/16 06:30:23;;;;;;;19.20;3.00;;;15.10;99.90;;;;;;5037692;28;20060;-70
2021/05/16 06:32:48;;;;;;;22.75;3.67;;;14.80;99.90;;;;;;5040075;28;20033;-70
2021/05/16 06:35:14;;;;;;;22.95;3.83;;;14.60;99.90;;;;;;5036580;28;20041;-70
2021/05/16 06:37:40;;;;;;;23.70;4.40;;;14.30;99.90;;;;;;5038925;28;20029;-71
2021/05/16 06:40:06;;;;;;;25.05;4.18;;;14.10;99.90;;;;;;5037369;28;20061;-70
2021/05/16 06:42:32;;;;;;;21.70;3.90;;;13.90;99.90;;;;;;5039197;28;20048;-70
2021/05/16 06:44:57;;;;;;;22.80;4.70;;;13.90;99.90;;;;;;5036250;28;20034;-69
2021/05/16 06:47:23;;;;;;;19.70;3.60;;;14.10;99.90;;;;;;5038323;28;20029;-71
2021/05/16 06:49:52;;;;;;;27.67;4.78;;;14.10;99.90;;;;;;5036078;28;20125;-70
2021/05/16 06:52:18;;;;;;;23.25;3.55;;;14.40;99.90;;;;;;5043324;28;20037;-69
2021/05/16 06:54:44;;;;;;;15.40;3.22;;;14.90;99.90;;;;;;5045117;28;20327;-70
2021/05/16 06:57:09;;;;;;;14.32;2.97;;;15.70;99.90;;;;;;5038669;28;20028;-74
2021/05/16 06:59:35;;;;;;;14.88;2.85;;;16.50;99.90;;;;;;5044292;28;20025;-70
2021/05/16 07:02:01;;;;;;;14.23;3.03;;;16.60;99.90;;;;;;5041801;28;20490;-68
2021/05/16 07:04:26;;;;;;;17.60;3.20;;;16.30;99.90;;;;;;5043895;28;20406;-70
2021/05/16 07:06:52;;;;;;;22.92;3.97;;;16.10;99.90;;;;;;5042515;28;20037;-70
2021/05/16 07:09:17;;;;;;;19.95;3.63;;;15.80;99.90;;;;;;5045123;28;20029;-71
2021/05/16 07:11:43;;;;;;;11.73;2.78;;;15.20;99.90;;;;;;5046759;28;20029;-71
2021/05/16 07:14:09;;;;;;;19.52;3.30;;;14.70;99.90;;;;;;5038763;28;20522;-69
2021/05/16 07:16:34;;;;;;;16.23;2.90;;;14.20;99.90;;;;;;5040929;28;20106;-69
2021/05/16 07:19:00;;;;;;;16.88;3.10;;;13.90;99.90;;;;;;5042616;28;20813;-70
2021/05/16 07:21:26;;;;;;;19.80;3.97;;;13.70;99.90;;;;;;5039077;28;20265;-71
2021/05/16 07:23:51;;;;;;;17.65;4.05;;;14.10;99.90;;;;;;5044300;28;20816;-70
2021/05/16 07:26:17;;;;;;;20.40;4.10;;;15.30;99.90;;;;;;5042174;28;20084;-68
2021/05/16 07:28:43;;;;;;;19.85;3.13;;;16.50;99.90;;;;;;5043099;28;20111;-70
2021/05/16 07:31:09;;;;;;;16.20;2.83;;;17.00;99.90;;;;;;5046454;28;20033;-70
2021/05/16 07:33:34;;;;;;;16.00;2.30;;;16.90;99.90;;;;;;5044089;28;20120;-70
2021/05/16 07:36:00;;;;;;;16.27;2.80;;;16.60;99.90;;;;;;5042221;28;20036;-69
2021/05/16 07:38:26;;;;;;;20.10;3.20;;;16.30;99.90;;;;;;5036753;28;20041;-70
2021/05/16 07:40:52;;;;;;;19.02;3.03;;;16.10;99.90;;;;;;5045488;28;20033;-69
2021/05/16 07:43:18;;;;;;;12.02;2.35;;;15.70;99.90;;;;;;5041668;28;20490;-74
2021/05/16 07:45:43;;;;;;;22.92;3.22;;;15.60;99.90;;;;;;5044888;28;20087;-70
2021/05/16 07:48:09;;;;;;;12.85;3.65;;;15.70;99.90;;;;;;5042427;28;20095;-68
2021/05/16 07:50:35;;;;;;;17.15;2.63;;;16.50;99.90;;;;;;5042897;28;20037;-69
2021/05/16 07:53:02;;;;;;;12.88;2.35;;;17.60;99.90;;;;;;5043907;28;20032;-70
2021/05/16 07:55:28;;;;;;;12.80;2.17;;;18.50;99.90;;;;;;5041837;28;20051;-69
2021/05/16 07:57:53;;;;;;;14.48;3.17;;;19.10;99.90;;;;;;5040963;28;20037;-70
2021/05/16 08:00:19;;;;;;;11.57;3.78;;;19.50;99.90;;;;;;5043111;28;20036;-72
2021/05/16 08:02:44;;;;;;;12.23;3.28;;;19.90;99.90;;;;;;5045827;28;20123;-69
2021/05/16 08:05:13;;;;;;;13.45;3.08;;;19.90;99.90;;;;;;5044832;28;20047;-70
2021/05/16 08:07:38;;;;;;;20.95;3.42;;;19.40;99.90;;;;;;5046256;28;20033;-71
2021/05/16 08:10:06;;;;;;;20.20;3.50;;;19.50;99.90;;;;;;5038926;28;20039;-71
2021/05/16 08:12:32;;;;;;;12.02;2.75;;;20.10;99.90;;;;;;5039864;28;20048;-71
2021/05/16 08:14:57;;;;;;;11.60;2.90;;;20.50;99.90;;;;;;5040464;28;20033;-69
2021/05/16 08:17:23;;;;;;;10.07;2.33;;;20.30;99.90;;;;;;5044129;28;20041;-71
2021/05/16 08:19:49;;;;;;;11.90;3.55;;;20.00;99.90;;;;;;5041777;28;20037;-70
2021/05/16 08:22:14;;;;;;;18.13;2.95;;;19.70;99.90;;;;;;5035897;28;20113;-71
2021/05/16 08:24:40;;;;;;;16.40;3.40;;;19.20;99.90;;;;;;5039986;28;20037;-70
2021/05/16 08:27:07;;;;;;;12.90;2.88;;;18.90;99.90;;;;;;5038317;28;20033;-71
2021/05/16 08:29:36;;;;;;;12.43;3.13;;;18.60;99.90;;;;;;5041908;28;20509;-71
2021/05/16 08:32:06;;;;;;;15.25;2.60;;;18.30;99.90;;;;;;5036425;28;20033;-70
2021/05/16 08:34:32;;;;;;;;;;;18.30;99.90;;;;;;5032126;28;20036;-69
2021/05/16 08:36:57;;;;;;;14.60;2.55;;;18.30;99.90;;;;;;5037332;28;19921;-71
2021/05/16 08:39:23;;;;;;;8.82;1.98;;;18.60;99.90;;;;;;5034810;28;20064;-68
2021/05/16 08:41:49;;;;;;;13.55;2.88;;;18.80;99.90;;;;;;5036323;28;20060;-71
2021/05/16 08:44:16;;;;;;;13.48;2.58;;;18.60;99.90;;;;;;5034609;28;20025;-71
2021/05/16 08:46:42;;;;;;;19.88;2.88;;;18.30;99.90;;;;;;5035897;28;20119;-71
2021/05/16 08:49:07;;;;;;;15.48;3.08;;;17.90;99.90;;;;;;5036823;28;20031;-70
2021/05/16 08:51:34;;;;;;;14.00;2.53;;;18.00;99.90;;;;;;5037910;28;20397;-70
2021/05/16 08:53:59;;;;;;;17.65;3.08;;;18.50;99.90;;;;;;5034658;28;20530;-71
2021/05/16 08:56:25;;;;;;;16.77;2.90;;;18.80;99.90;;;;;;5033745;28;20116;-71
2021/05/16 08:58:50;;;;;;;12.75;2.80;;;18.90;99.90;;;;;;5035784;28;20099;-71
2021/05/16 09:01:28;;;;;;;12.80;2.20;;;18.80;99.90;;;;;;5040392;28;20449;-71
2021/05/16 09:03:54;;;;;;;11.98;2.45;;;18.40;99.90;;;;;;5039213;28;20040;-71
2021/05/16 09:06:35;;;;;;;11.70;2.85;;;18.00;99.90;;;;;;5036888;28;20124;-71
2021/05/16 09:09:27;;;;;;;11.80;2.40;;;17.40;99.90;;;;;;5036641;28;20040;-71
2021/05/16 09:12:15;;;;;;;8.52;2.03;;;16.60;99.90;;;;;;5036048;28;20044;-71
2021/05/16 09:14:47;;;;;;;11.48;2.35;;;15.80;99.90;;;;;;5032527;28;20391;-70
2021/05/16 09:17:28;;;;;;;5.88;1.60;;;15.30;99.90;;;;;;5036023;28;20035;-71
2021/05/16 09:19:56;;;;;;;;;;;14.90;99.90;;;;;;5035968;28;20033;-70
2021/05/16 09:22:46;;;;;;;6.82;1.33;;;14.40;99.90;;;;;;5031003;28;19916;-71
2021/05/16 09:25:31;;;;;;;6.20;0.80;;;14.20;99.90;;;;;;5035285;28;20502;-70
2021/05/16 09:28:19;;;;;;;3.88;1.25;;;13.90;99.90;;;;;;5037205;28;20044;-71
2021/05/16 09:30:44;;;;;;;7.90;1.13;;;13.70;99.90;;;;;;5035564;28;20948;-70
2021/05/16 09:33:13;;;;;;;5.90;1.50;;;13.70;99.90;;;;;;5033244;28;20136;-70
2021/05/16 09:35:42;;;;;;;11.70;1.27;;;13.80;99.90;;;;;;5036168;28;20432;-70
2021/05/16 09:38:13;;;;;;;4.53;1.33;;;14.00;99.90;;;;;;5036473;28;20029;-70
2021/05/16 09:40:43;;;;;;;7.50;1.88;;;14.30;99.90;;;;;;5034463;28;20030;-71
2021/05/16 09:43:11;;;;;;;9.07;1.70;;;14.70;99.90;;;;;;5034063;28;20037;-70
2021/05/16 09:46:04;;;;;;;7.47;1.80;;;14.80;99.90;;;;;;5034260;28;20041;-69
2021/05/16 09:48:36;;;;;;;15.02;3.00;;;15.20;99.90;;;;;;5036609;28;20025;-70
2021/05/16 09:51:07;;;;;;;10.55;3.05;;;15.10;99.90;;;;;;5032589;28;20036;-72
2021/05/16 09:53:33;;;;;;;11.27;2.05;;;14.80;99.90;;;;;;5037615;28;20079;-70
2021/05/16 09:56:17;;;;;;;4.78;1.67;;;14.40;99.90;;;;;;5037960;28;20037;-69
2021/05/16 09:58:44;;;;;;;4.70;0.88;;;13.70;99.90;;;;;;5051638;28;20048;-68
2021/05/16 10:01:11;;;;;;;5.60;1.50;;;13.20;99.90;;;;;;5040228;28;20021;-71
2021/05/16 10:03:38;;;;;;;7.35;1.52;;;12.80;99.90;;;;;;5041028;28;20037;-70
2021/05/16 10:06:05;;;;;;;7.93;1.48;;;12.60;99.90;;;;;;5039130;28;20629;-70
2021/05/16 10:08:31;;;;;;;13.00;2.10;;;12.40;99.90;;;;;;5041173;28;20155;-70
2021/05/16 10:10:57;;;;;;;12.90;2.03;;;12.40;99.90;;;;;;5038761;28;20086;-69
2021/05/16 10:13:27;;;;;;;5.28;1.17;;;12.40;99.90;;;;;;5038818;28;20037;-69
2021/05/16 10:15:55;;;;;;;9.90;1.40;;;12.50;99.90;;;;;;5043056;28;20037;-69
2021/05/16 10:18:24;;;;;;;9.80;1.35;;;12.40;99.90;;;;;;5038631;28;20040;-70
2021/05/16 10:20:50;;;;;;;8.88;1.25;;;12.60;99.90;;;;;;5045071;28;20029;-70
2021/05/16 10:23:33;;;;;;;7.13;2.65;;;12.60;99.90;;;;;;5049212;28;20033;-70
2021/05/16 10:26:19;;;;;;;5.97;1.63;;;12.70;99.90;;;;;;5041140;28;20033;-69
2021/05/16 10:29:04;;;;;;;5.05;1.38;;;12.50;99.90;;;;;;5043617;28;20120;-70
2021/05/16 10:31:45;;;;;;;11.82;1.42;;;12.40;99.90;;;;;;5046405;28;20030;-69
2021/05/16 10:34:29;;;;;;;8.98;1.50;;;12.40;99.90;;;;;;5046813;28;20101;-70
2021/05/16 10:36:56;;;;;;;7.55;1.20;;;12.80;99.90;;;;;;5045909;28;20074;-71
2021/05/16 10:39:44;;;;;;;5.68;0.93;;;13.40;99.90;;;;;;5041131;28;20061;-69
2021/05/16 10:42:14;;;;;;;6.05;1.00;;;14.10;99.90;;;;;;5039927;28;20107;-69
2021/05/16 10:44:59;;;;;;;6.60;1.30;;;14.60;99.90;;;;;;5049323;28;20029;-68
2021/05/16 10:47:44;;;;;;;7.38;1.02;;;15.00;99.90;;;;;;5044753;28;20033;-69
2021/05/16 10:50:23;;;;;;;10.13;1.30;;;15.30;99.90;;;;;;5045207;28;20051;-68
2021/05/16 10:53:08;;;;;;;7.07;1.30;;;15.70;99.90;;;;;;5044366;28;20036;-70
2021/05/16 10:55:39;;;;;;;10.52;1.85;;;15.90;99.90;;;;;;5073692;28;20036;-69
2021/05/16 10:58:06;;;;;;;9.60;1.98;;;16.00;99.90;;;;;;5046184;28;20057;-71
2021/05/16 11:00:40;;;;;;;9.20;2.10;;;15.70;99.90;;;;;;5042832;28;20029;-69
2021/05/16 11:03:12;;;;;;;9.07;1.10;;;15.30;99.90;;;;;;5041382;28;20128;-69
2021/05/16 11:08:18;;;;;;;9.32;2.45;;;14.60;99.90;;;;;;5042223;28;20060;-69
2021/05/16 11:10:45;;;;;;;8.00;1.40;;;14.50;99.90;;;;;;5044749;28;20040;-71
2021/05/16 11:13:13;;;;;;;8.68;1.92;;;14.50;99.90;;;;;;5045204;28;20124;-70
2021/05/16 11:15:57;;;;;;;9.52;1.70;;;14.50;99.90;;;;;;5043609;28;20033;-71
2021/05/16 11:18:23;;;;;;;13.57;1.67;;;14.60;99.90;;;;;;5040108;28;20041;-71
2021/05/16 11:20:54;;;;;;;9.23;1.70;;;14.60;99.90;;;;;;5048544;28;20056;-70
2021/05/16 11:23:23;;;;;;;;;;;14.70;99.90;;;;;;5048767;28;20039;-70
2021/05/16 11:25:55;;;;;;;11.75;1.95;;;14.70;99.90;;;;;;5048002;28;19912;-70
2021/05/16 11:28:28;;;;;;;12.02;2.10;;;14.70;99.90;;;;;;5042807;28;20041;-71
2021/05/16 11:30:56;;;;;;;11.30;1.95;;;14.80;99.90;;;;;;5044089;28;20036;-70
2021/05/16 11:33:29;;;;;;;11.23;2.03;;;15.10;99.90;;;;;;5041056;28;20044;-70
2021/05/16 11:35:55;;;;;;;9.75;1.45;;;15.50;99.90;;;;;;5035439;28;20551;-70
2021/05/16 11:38:26;;;;;;;10.45;2.33;;;15.70;99.90;;;;;;5034138;28;20414;-68
2021/05/16 11:40:53;;;;;;;11.40;2.60;;;15.90;99.90;;;;;;5038878;28;20114;-70
2021/05/16 11:43:29;;;;;;;11.50;2.42;;;15.90;99.90;;;;;;5035001;28;20051;-71
2021/05/16 11:45:55;;;;;;;13.88;2.65;;;15.80;99.90;;;;;;5037765;28;20037;-70
2021/05/16 11:48:37;;;;;;;20.40;3.05;;;15.50;99.90;;;;;;5034997;28;20040;-69
2021/05/16 11:51:10;;;;;;;16.75;2.95;;;15.20;99.90;;;;;;5036387;28;20048;-71
2021/05/16 11:53:37;;;;;;;16.83;2.60;;;14.80;99.90;;;;;;5037360;28;20045;-68
2021/05/16 11:56:11;;;;;;;11.57;2.60;;;14.30;99.90;;;;;;5036207;28;20119;-69
2021/05/16 11:58:38;;;;;;;15.90;3.03;;;14.10;99.90;;;;;;5034741;28;20099;-67
2021/05/16 12:01:11;;;;;;;10.88;2.58;;;13.80;99.90;;;;;;5034824;28;20041;-70
2021/05/16 12:03:36;;;;;;;13.88;2.05;;;13.60;99.90;;;;;;5038931;28;20090;-67
2021/05/16 12:06:06;;;;;;;10.55;1.67;;;13.40;99.90;;;;;;5036221;28;20029;-68
2021/05/16 12:08:33;;;;;;;15.95;1.90;;;13.50;99.90;;;;;;5035963;28;20075;-68
2021/05/16 12:11:11;;;;;;;9.40;2.10;;;13.80;99.90;;;;;;5037124;28;20029;-68
2021/05/16 12:13:37;;;;;;;12.15;2.00;;;13.90;99.90;;;;;;5042071;28;20120;-70
2021/05/16 12:16:13;;;;;;;8.32;1.95;;;14.00;99.90;;;;;;5043495;28;20044;-70
2021/05/16 12:18:40;;;;;;;17.40;2.05;;;14.10;99.90;;;;;;5039310;28;20036;-69
2021/05/16 12:21:06;;;;;;;9.10;1.48;;;14.10;99.90;;;;;;5037943;28;20098;-70
2021/05/16 12:23:32;;;;;;;13.13;1.95;;;14.10;99.90;;;;;;5040496;28;20033;-70
2021/05/16 12:25:58;;;;;;;8.82;1.20;;;14.30;99.90;;;;;;5041294;28;20068;-70
2021/05/16 12:28:24;;;;;;;7.88;1.98;;;14.30;99.90;;;;;;5040417;28;20033;-67
2021/05/16 12:30:51;;;;;;;4.25;0.95;;;14.20;99.90;;;;;;5031530;28;20047;-69
2021/05/16 12:33:17;;;;;;;2.05;0.70;;;14.00;99.90;;;;;;5039864;28;20041;-70
2021/05/16 12:35:47;;;;;;;2.53;0.60;;;13.70;99.90;;;;;;5038590;28;20035;-69
2021/05/16 12:38:14;;;;;;;2.45;0.60;;;13.50;99.90;;;;;;5037121;28;20051;-70
2021/05/16 12:40:41;;;;;;;6.03;0.75;;;13.50;99.90;;;;;;5031144;28;20033;-66
2021/05/16 12:43:09;;;;;;;1.48;0.57;;;13.70;99.90;;;;;;5036060;28;20072;-66
2021/05/16 12:45:39;;;;;;;4.07;0.80;;;13.90;99.90;;;;;;5039887;28;20033;-70